createdAt,value
2023-01-11T00:00:39.772Z,4.80
2023-01-11T00:03:09.100Z,4.72
2023-01-11T00:05:40.749Z,4.90
2023-01-11T00:08:08.897Z,4.32
2023-01-11T00:10:36.935Z,4.43
2023-01-11T00:13:05.451Z,4.55
2023-01-11T00:15:33.397Z,4.30
2023-01-11T00:18:02.959Z,3.95
2023-01-11T00:20:32.334Z,4.57
2023-01-11T00:23:00.206Z,4.32
2023-01-11T00:25:28.224Z,4.20
2023-01-11T00:27:56.373Z,4.38
2023-01-11T00:30:24.514Z,4.45
2023-01-11T00:32:56.761Z,4.30
2023-01-11T00:35:24.954Z,4.30
2023-01-11T00:37:54.792Z,3.90
2023-01-11T00:40:24.048Z,4.80
2023-01-11T00:43:09.343Z,4.05
2023-01-11T00:45:54.787Z,4.40
2023-01-11T00:48:22.870Z,4.70
2023-01-11T00:50:54.202Z,4.55
2023-01-11T00:53:23.490Z,4.60
2023-01-11T00:55:51.211Z,4.00
2023-01-11T00:58:19.054Z,4.15
2023-01-11T01:00:47.076Z,4.30
2023-01-11T01:03:15.056Z,4.07
2023-01-11T01:05:42.822Z,4.20
2023-01-11T01:08:10.691Z,4.25
2023-01-11T01:10:39.871Z,4.05
2023-01-11T01:13:25.501Z,4.13
2023-01-11T01:15:57.906Z,4.30
2023-01-11T01:18:25.917Z,4.10
2023-01-11T01:20:53.674Z,3.95
2023-01-11T01:23:21.769Z,3.88
2023-01-11T01:25:50.948Z,3.92
2023-01-11T01:28:22.102Z,4.10
2023-01-11T01:30:51.850Z,5.10
2023-01-11T01:33:19.770Z,3.95
2023-01-11T01:35:47.704Z,3.97
2023-01-11T01:38:15.592Z,4.18
2023-01-11T01:40:43.894Z,3.45
2023-01-11T01:43:14.450Z,3.80
2023-01-11T01:45:42.479Z,3.70
2023-01-11T01:48:12.330Z,3.95
2023-01-11T01:50:44.545Z,3.38
2023-01-11T01:53:14.871Z,3.35
2023-01-11T01:55:44.919Z,3.70
2023-01-11T01:58:16.823Z,3.25
2023-01-11T02:00:46.511Z,3.60
2023-01-11T02:03:17.901Z,3.30
2023-01-11T02:05:46.056Z,3.00
2023-01-11T02:08:21.000Z,3.03
2023-01-11T02:10:48.955Z,2.88
2023-01-11T02:13:18.457Z,2.72
2023-01-11T02:15:46.759Z,3.10
2023-01-11T02:18:15.199Z,2.90
2023-01-11T02:21:01.953Z,2.80
2023-01-11T02:24:07.664Z,3.08
2023-01-11T02:26:59.712Z,2.97
2023-01-11T02:29:35.570Z,2.90
2023-01-11T02:32:10.471Z,2.80
2023-01-11T02:34:43.058Z,2.90
2023-01-11T02:37:25.074Z,2.80
2023-01-11T02:40:01.407Z,2.85
2023-01-11T02:42:55.104Z,2.78
2023-01-11T02:45:34.194Z,2.78
2023-01-11T02:48:05.130Z,2.78
2023-01-11T02:50:37.011Z,2.78
2023-01-11T02:53:10.727Z,2.78
2023-01-11T02:55:42.080Z,2.83
2023-01-11T02:58:12.538Z,2.97
2023-01-11T03:00:42.163Z,3.10
2023-01-11T03:03:13.631Z,3.38
2023-01-11T03:05:46.480Z,3.38
2023-01-11T03:08:26.009Z,3.40
2023-01-11T03:11:02.317Z,3.72
2023-01-11T03:13:38.850Z,3.10
2023-01-11T03:16:22.803Z,3.25
2023-01-11T03:18:55.508Z,3.38
2023-01-11T03:21:28.942Z,3.70
2023-01-11T03:24:06.601Z,4.07
2023-01-11T03:26:41.394Z,3.85
2023-01-11T03:29:15.813Z,4.20
2023-01-11T03:31:50.731Z,3.90
2023-01-11T03:34:24.041Z,3.47
2023-01-11T03:36:55.643Z,3.80
2023-01-11T03:39:28.444Z,3.90
2023-01-11T03:41:58.889Z,3.72
2023-01-11T03:44:28.058Z,4.30
2023-01-11T03:46:59.256Z,4.43
2023-01-11T03:49:30.677Z,4.50
2023-01-11T03:51:59.517Z,4.15
2023-01-11T03:54:30.134Z,4.45
2023-01-11T03:57:02.940Z,4.50
2023-01-11T03:59:30.996Z,4.07
2023-01-11T04:02:00.495Z,4.68
2023-01-11T04:04:28.706Z,4.63
2023-01-11T04:06:57.151Z,4.55
2023-01-11T04:09:24.981Z,4.57
2023-01-11T04:11:52.938Z,4.28
2023-01-11T04:14:20.716Z,4.55
2023-01-11T04:16:48.522Z,4.60
2023-01-11T04:19:17.626Z,5.00
2023-01-11T04:21:45.711Z,5.03
2023-01-11T04:24:14.367Z,5.10
2023-01-11T04:26:42.155Z,5.80
2023-01-11T04:29:10.606Z,5.63
2023-01-11T04:31:38.461Z,6.10
2023-01-11T04:34:06.356Z,6.38
2023-01-11T04:36:35.658Z,6.20
2023-01-11T04:39:03.622Z,4.65
2023-01-11T04:41:49.045Z,4.82
2023-01-11T04:44:16.880Z,4.63
2023-01-11T04:46:44.658Z,4.78
2023-01-11T04:49:12.424Z,5.53
2023-01-11T04:51:41.866Z,5.55
2023-01-11T04:54:10.598Z,5.22
2023-01-11T04:56:38.480Z,5.30
2023-01-11T04:59:06.215Z,5.60
2023-01-11T05:01:34.021Z,5.38
2023-01-11T05:04:01.812Z,4.60
2023-01-11T05:06:29.738Z,4.78
2023-01-11T05:09:00.749Z,4.63
2023-01-11T05:11:28.946Z,4.63
2023-01-11T05:13:59.924Z,4.38
2023-01-11T05:16:27.829Z,4.80
2023-01-11T05:18:56.704Z,4.10
2023-01-11T05:21:26.747Z,4.93
2023-01-11T05:23:54.729Z,4.57
2023-01-11T05:26:26.874Z,4.20
2023-01-11T05:28:55.781Z,5.22
2023-01-11T05:31:23.913Z,4.80
2023-01-11T05:33:51.716Z,4.20
2023-01-11T05:36:21.457Z,5.30
2023-01-11T05:38:50.780Z,4.45
2023-01-11T05:41:19.756Z,4.72
2023-01-11T05:44:07.779Z,4.32
2023-01-11T05:46:36.612Z,4.45
2023-01-11T05:49:05.173Z,4.30
2023-01-11T05:51:33.644Z,4.57
2023-01-11T05:54:02.222Z,4.40
2023-01-11T05:56:30.434Z,4.10
2023-01-11T05:58:59.573Z,4.43
2023-01-11T06:01:27.656Z,4.72
2023-01-11T06:03:55.567Z,4.35
2023-01-11T06:06:23.697Z,3.33
2023-01-11T06:08:51.770Z,3.97
2023-01-11T06:11:19.545Z,4.47
2023-01-11T06:13:47.576Z,4.65
2023-01-11T06:16:18.528Z,4.43
2023-01-11T06:18:48.702Z,5.03
2023-01-11T06:21:17.310Z,3.70
2023-01-11T06:23:47.367Z,4.28
2023-01-11T06:26:16.740Z,3.88
2023-01-11T06:28:44.810Z,4.65
2023-01-11T06:31:14.834Z,4.40
2023-01-11T06:33:45.979Z,4.72
2023-01-11T06:36:14.748Z,4.38
2023-01-11T06:38:43.485Z,3.67
2023-01-11T06:41:12.951Z,4.93
2023-01-11T06:43:42.471Z,4.55
2023-01-11T06:46:14.744Z,4.05
2023-01-11T06:48:42.699Z,4.35
2023-01-11T06:51:12.629Z,3.15
2023-01-11T06:53:41.439Z,4.20
2023-01-11T06:56:10.946Z,4.13
2023-01-11T06:58:38.937Z,4.32
2023-01-11T07:01:07.664Z,4.57
2023-01-11T07:03:35.723Z,3.30
2023-01-11T07:06:04.699Z,3.50
2023-01-11T07:08:33.935Z,3.95
2023-01-11T07:11:01.877Z,4.10
2023-01-11T07:13:29.731Z,3.40
2023-01-11T07:15:58.766Z,4.05
2023-01-11T07:18:26.558Z,3.20
2023-01-11T07:20:54.563Z,4.03
2023-01-11T07:23:22.478Z,3.47
2023-01-11T07:25:51.641Z,3.70
2023-01-11T07:28:19.414Z,3.70
2023-01-11T07:30:58.294Z,3.08
2023-01-11T07:33:27.675Z,3.38
2023-01-11T07:35:55.878Z,3.42
2023-01-11T07:38:24.021Z,3.42
2023-01-11T07:40:53.216Z,3.47
2023-01-11T07:43:23.205Z,3.55
2023-01-11T07:45:52.558Z,3.38
2023-01-11T07:48:25.009Z,3.05
2023-01-11T07:50:53.581Z,4.32
2023-01-11T07:53:21.623Z,3.28
2023-01-11T07:55:49.477Z,3.00
2023-01-11T07:58:18.695Z,3.58
2023-01-11T08:00:46.972Z,3.40
2023-01-11T08:03:14.968Z,4.10
2023-01-11T08:05:42.886Z,3.63
2023-01-11T08:08:10.826Z,3.60
2023-01-11T08:10:41.257Z,3.97
2023-01-11T08:13:30.686Z,3.70
2023-01-11T08:16:00.567Z,3.97
2023-01-11T08:18:28.483Z,3.83
2023-01-11T08:20:56.457Z,3.22
2023-01-11T08:23:25.977Z,4.00
2023-01-11T08:25:57.935Z,3.13
2023-01-11T08:28:26.348Z,3.72
2023-01-11T08:30:54.337Z,3.28
2023-01-11T08:33:23.721Z,3.70
2023-01-11T08:35:51.682Z,3.78
2023-01-11T08:38:19.900Z,3.53
2023-01-11T08:40:49.253Z,3.80
2023-01-11T08:43:17.545Z,2.88
2023-01-11T08:45:45.703Z,3.15
2023-01-11T08:48:14.102Z,3.80
2023-01-11T08:50:44.966Z,4.20
2023-01-11T08:53:13.020Z,3.67
2023-01-11T08:55:43.339Z,3.60
2023-01-11T08:58:11.315Z,3.58
2023-01-11T09:00:39.387Z,3.53
2023-01-11T09:03:07.424Z,4.32
2023-01-11T09:05:35.371Z,3.38
2023-01-11T09:08:05.170Z,3.95
2023-01-11T09:10:33.527Z,3.80
2023-01-11T09:13:01.499Z,4.53
2023-01-11T09:15:29.663Z,3.83
2023-01-11T09:17:57.855Z,3.88
2023-01-11T09:20:25.754Z,3.97
2023-01-11T09:22:54.279Z,3.78
2023-01-11T09:25:23.585Z,4.25
2023-01-11T09:27:52.899Z,3.83
2023-01-11T09:30:22.215Z,5.03
2023-01-11T09:32:50.964Z,4.50
2023-01-11T09:35:19.813Z,4.15
2023-01-11T09:37:49.592Z,4.15
2023-01-11T09:40:20.904Z,4.55
2023-01-11T09:42:52.855Z,4.90
2023-01-11T09:45:23.520Z,4.20
2023-01-11T09:47:53.841Z,3.42
2023-01-11T09:50:26.411Z,4.10
2023-01-11T09:52:56.188Z,4.47
2023-01-11T09:55:29.992Z,4.93
2023-01-11T09:58:06.023Z,4.18
2023-01-11T10:00:44.300Z,3.83
2023-01-11T10:03:54.383Z,4.00
2023-01-11T10:06:27.165Z,4.85
2023-01-11T10:18:34.071Z,4.22
2023-01-11T10:18:35.338Z,4.32
2023-01-11T10:21:07.226Z,4.75
2023-01-11T10:23:42.093Z,3.95
2023-01-11T10:26:21.251Z,4.13
2023-01-11T10:29:05.273Z,3.65
2023-01-11T10:31:49.358Z,3.97
2023-01-11T10:34:38.989Z,3.42
2023-01-11T10:37:26.786Z,3.92
2023-01-11T10:40:18.444Z,3.83
2023-01-11T10:42:49.842Z,4.45
2023-01-11T10:45:20.004Z,4.55
2023-01-11T10:47:56.639Z,3.42
2023-01-11T10:50:27.925Z,3.22
2023-01-11T10:53:01.060Z,4.35
2023-01-11T10:55:34.698Z,3.40
2023-01-11T10:58:11.052Z,4.00
2023-01-11T11:00:44.329Z,3.80
2023-01-11T11:03:51.104Z,4.20
2023-01-11T11:06:28.493Z,3.40
2023-01-11T11:09:02.030Z,4.25
2023-01-11T11:11:33.208Z,4.07
2023-01-11T11:14:04.934Z,4.22
2023-01-11T11:16:49.858Z,4.32
2023-01-11T11:19:22.373Z,3.13
2023-01-11T11:21:52.555Z,4.00
2023-01-11T11:24:24.385Z,3.58
2023-01-11T11:27:00.385Z,3.15
2023-01-11T11:29:30.835Z,4.07
2023-01-11T11:32:00.091Z,3.15
2023-01-11T11:34:28.455Z,3.90
2023-01-11T11:36:59.411Z,3.80
2023-01-11T11:39:30.526Z,4.65
2023-01-11T11:42:06.359Z,3.90
2023-01-11T11:44:35.105Z,3.40
2023-01-11T11:47:04.168Z,3.67
2023-01-11T11:49:33.394Z,3.35
2023-01-11T11:52:03.987Z,4.00
2023-01-11T11:54:33.217Z,3.45
2023-01-11T11:57:13.711Z,3.85
2023-01-11T11:59:45.757Z,3.40
2023-01-11T12:02:22.729Z,3.50
2023-01-11T12:04:51.793Z,3.45
2023-01-11T12:07:22.419Z,3.85
2023-01-11T12:09:52.397Z,3.42
2023-01-11T12:12:21.165Z,3.45
2023-01-11T12:15:09.819Z,3.47
2023-01-11T12:17:38.266Z,3.97
2023-01-11T12:20:28.533Z,3.58
2023-01-11T12:23:16.854Z,3.50
2023-01-11T12:26:01.191Z,3.45
2023-01-11T12:28:41.812Z,4.10
2023-01-11T12:31:14.979Z,3.50
2023-01-11T12:33:47.537Z,3.30
2023-01-11T12:36:21.436Z,2.88
2023-01-11T12:39:00.605Z,3.35
2023-01-11T12:41:54.177Z,3.78
2023-01-11T12:44:33.563Z,3.55
2023-01-11T12:47:18.835Z,3.67
2023-01-11T12:49:47.906Z,4.10
2023-01-11T12:52:39.233Z,3.35
2023-01-11T12:55:29.319Z,3.20
2023-01-11T12:58:16.031Z,4.57
2023-01-11T13:01:08.399Z,4.05
2023-01-11T13:04:05.676Z,3.70
2023-01-11T13:06:37.446Z,4.40
2023-01-11T13:09:10.221Z,3.75
2023-01-11T13:11:49.172Z,4.00
2023-01-11T13:14:50.093Z,4.70
2023-01-11T13:17:29.785Z,4.05
2023-01-11T13:20:20.372Z,3.72
2023-01-11T13:22:51.871Z,4.00
2023-01-11T13:25:22.867Z,3.90
2023-01-11T13:27:52.933Z,4.35
2023-01-11T13:30:24.411Z,4.68
2023-01-11T13:32:56.827Z,4.13
2023-01-11T13:35:33.094Z,4.05
2023-01-11T13:38:05.745Z,3.35
2023-01-11T13:40:36.961Z,3.63
2023-01-11T13:43:08.888Z,3.50
2023-01-11T13:45:39.051Z,3.28
2023-01-11T13:48:13.028Z,3.78
2023-01-11T13:53:18.963Z,4.22
2023-01-11T13:55:54.206Z,3.80
2023-01-11T13:58:29.048Z,4.45
2023-01-11T14:01:01.654Z,3.50
2023-01-11T14:03:33.794Z,3.67
2023-01-11T14:06:13.573Z,3.85
2023-01-11T14:09:00.537Z,4.13
2023-01-11T14:11:32.748Z,3.83
2023-01-11T14:14:18.447Z,4.68
2023-01-11T14:16:56.662Z,3.92
2023-01-11T14:19:35.982Z,4.00
2023-01-11T14:22:20.240Z,3.92
2023-01-11T14:24:54.347Z,4.18
2023-01-11T14:27:49.375Z,4.35
2023-01-11T14:30:48.444Z,4.22
2023-01-11T14:33:35.380Z,4.05
2023-01-11T14:36:13.373Z,4.07
2023-01-11T14:39:02.715Z,4.07
2023-01-11T14:41:56.214Z,4.03
2023-01-11T14:44:39.813Z,3.72
2023-01-11T14:47:37.257Z,3.90
2023-01-11T14:50:17.525Z,4.32
2023-01-11T14:52:46.198Z,3.80
2023-01-11T14:55:19.009Z,3.70
2023-01-11T14:58:03.007Z,3.65
2023-01-11T15:01:04.657Z,4.00
2023-01-11T15:03:40.005Z,3.70
2023-01-11T15:06:14.621Z,4.00
2023-01-11T15:08:51.029Z,4.75
2023-01-11T15:11:31.551Z,3.97
2023-01-11T15:14:04.558Z,4.05
2023-01-11T15:16:54.119Z,3.28
2023-01-11T15:19:29.039Z,3.33
2023-01-11T15:21:58.531Z,3.10
2023-01-11T15:24:29.157Z,3.85
2023-01-11T15:26:58.869Z,3.38
2023-01-11T15:29:30.091Z,3.70
2023-01-11T15:32:18.556Z,3.45
2023-01-11T15:34:49.355Z,4.50
2023-01-11T15:37:41.546Z,3.72
2023-01-11T15:40:17.875Z,4.35
2023-01-11T15:43:24.007Z,3.78
2023-01-11T15:46:44.750Z,3.65
2023-01-11T15:49:54.309Z,3.58
2023-01-11T15:52:52.217Z,3.65
2023-01-11T15:55:48.308Z,3.47
2023-01-11T15:59:15.728Z,3.38
2023-01-11T16:02:04.177Z,3.33
2023-01-11T16:04:33.492Z,4.03
2023-01-11T16:07:05.643Z,4.10
2023-01-11T16:09:58.887Z,3.53
2023-01-11T16:12:50.658Z,3.85
2023-01-11T16:15:39.778Z,4.63
2023-01-11T16:18:13.891Z,3.80
2023-01-11T16:23:20.203Z,3.20
2023-01-11T16:25:53.273Z,3.00
2023-01-11T16:28:21.552Z,3.22
2023-01-11T16:30:57.031Z,3.75
2023-01-11T16:33:27.153Z,3.80
2023-01-11T16:36:06.340Z,4.22
2023-01-11T16:38:40.347Z,3.97
2023-01-11T16:41:13.356Z,3.17
2023-01-11T16:43:45.199Z,2.95
2023-01-11T16:46:37.728Z,3.13
2023-01-11T16:49:11.021Z,2.83
2023-01-11T16:51:39.050Z,3.75
2023-01-11T16:54:07.219Z,3.63
2023-01-11T16:56:37.103Z,2.83
2023-01-11T16:59:08.097Z,3.17
2023-01-11T17:01:50.517Z,2.75
2023-01-11T17:04:29.810Z,2.67
2023-01-11T17:06:57.807Z,3.00
2023-01-11T17:09:28.271Z,3.47
2023-01-11T17:11:57.571Z,3.05
2023-01-11T17:14:54.617Z,2.88
2023-01-11T17:17:22.907Z,3.15
2023-01-11T17:19:51.788Z,3.53
2023-01-11T17:22:22.950Z,3.35
2023-01-11T17:24:54.297Z,4.20
2023-01-11T17:27:26.121Z,3.22
2023-01-11T17:29:55.770Z,3.53
2023-01-11T17:32:25.548Z,2.35
2023-01-11T17:34:54.004Z,2.97
2023-01-11T17:37:22.601Z,3.28
2023-01-11T17:39:51.666Z,3.20
2023-01-11T17:42:37.517Z,3.03
2023-01-11T17:45:18.567Z,2.92
2023-01-11T17:47:49.507Z,3.47
2023-01-11T17:50:24.676Z,2.92
2023-01-11T17:52:55.137Z,3.15
2023-01-11T17:55:24.740Z,3.13
2023-01-11T17:58:12.666Z,2.83
2023-01-11T18:00:43.711Z,3.45
2023-01-11T18:03:15.890Z,3.17
2023-01-11T18:05:44.519Z,2.97
2023-01-11T18:08:20.635Z,3.03
2023-01-11T18:10:55.149Z,3.35
2023-01-11T18:13:27.344Z,3.53
2023-01-11T18:15:56.813Z,3.85
2023-01-11T18:18:47.221Z,3.50
2023-01-11T18:21:41.095Z,4.18
2023-01-11T18:24:26.576Z,3.33
2023-01-11T18:27:07.819Z,3.45
2023-01-11T18:29:50.438Z,2.92
2023-01-11T18:32:20.509Z,2.83
2023-01-11T18:34:50.299Z,3.00
2023-01-11T18:37:18.328Z,2.90
2023-01-11T18:39:46.352Z,3.42
2023-01-11T18:42:19.513Z,3.10
2023-01-11T18:44:49.647Z,3.67
2023-01-11T18:47:21.663Z,3.53
2023-01-11T18:49:50.487Z,4.03
2023-01-11T18:52:18.912Z,3.47
2023-01-11T18:54:47.258Z,3.53
2023-01-11T18:57:15.231Z,3.15
2023-01-11T18:59:43.422Z,3.65
2023-01-11T19:04:55.286Z,2.90
2023-01-11T19:07:24.553Z,2.83
2023-01-11T19:09:54.783Z,2.97
2023-01-11T19:12:22.951Z,3.33
2023-01-11T19:14:51.002Z,3.38
2023-01-11T19:17:20.414Z,4.57
2023-01-11T19:19:48.443Z,3.78
2023-01-11T19:22:16.532Z,3.33
2023-01-11T19:24:44.403Z,3.70
2023-01-11T19:27:13.664Z,3.05
2023-01-11T19:29:42.174Z,3.05
2023-01-11T19:32:10.294Z,3.47
2023-01-11T19:34:41.149Z,3.40
2023-01-11T19:37:09.221Z,3.33
2023-01-11T19:39:37.312Z,3.42
2023-01-11T19:42:05.662Z,3.90
2023-01-11T19:44:35.070Z,3.60
2023-01-11T19:47:11.505Z,3.90
2023-01-11T19:49:41.591Z,2.95
2023-01-11T19:52:13.261Z,3.08
2023-01-11T19:54:42.311Z,3.70
2023-01-11T19:57:11.582Z,3.83
2023-01-11T19:59:39.420Z,3.25
2023-01-11T20:02:08.086Z,3.67
2023-01-11T20:04:37.347Z,3.38
2023-01-11T20:07:07.203Z,3.30
2023-01-11T20:09:37.612Z,3.22
2023-01-11T20:12:06.006Z,3.30
2023-01-11T20:14:33.985Z,3.65
2023-01-11T20:17:02.537Z,3.30
2023-01-11T20:19:32.299Z,3.50
2023-01-11T20:22:08.009Z,3.40
2023-01-11T20:24:44.380Z,3.50
2023-01-11T20:27:20.857Z,3.70
2023-01-11T20:33:12.568Z,3.30
2023-01-11T20:42:29.560Z,4.10
2023-01-11T20:45:32.563Z,3.83
2023-01-11T20:51:58.162Z,3.08
2023-01-11T20:58:29.843Z,3.13
2023-01-11T21:01:32.132Z,4.35
2023-01-11T21:04:13.791Z,4.15
2023-01-11T21:10:05.626Z,3.72
2023-01-11T21:12:34.009Z,4.07
2023-01-11T21:15:03.326Z,3.40
2023-01-11T21:17:31.590Z,3.38
2023-01-11T21:19:59.500Z,3.40
2023-01-11T21:22:27.675Z,3.70
2023-01-11T21:24:55.500Z,3.78
2023-01-11T21:27:23.473Z,3.60
2023-01-11T21:29:51.452Z,3.50
2023-01-11T21:32:21.561Z,3.38
2023-01-11T21:34:49.650Z,3.13
2023-01-11T21:37:19.808Z,3.22
2023-01-11T21:39:47.866Z,3.17
2023-01-11T21:42:15.665Z,3.35
2023-01-11T21:44:43.999Z,3.40
2023-01-11T21:47:14.676Z,3.22
2023-01-11T21:49:44.036Z,3.45
2023-01-11T21:52:12.058Z,3.47
2023-01-11T21:54:39.968Z,3.38
2023-01-11T21:57:07.996Z,3.47
2023-01-11T21:59:36.019Z,3.28
2023-01-11T22:02:04.013Z,3.45
2023-01-11T22:04:31.994Z,3.03
2023-01-11T22:07:01.195Z,3.28
2023-01-11T22:09:29.116Z,3.60
2023-01-11T22:11:57.089Z,3.50
2023-01-11T22:14:25.442Z,3.45
2023-01-11T22:16:53.498Z,2.67
2023-01-11T22:19:21.657Z,3.17
2023-01-11T22:21:49.584Z,3.72
2023-01-11T22:24:18.857Z,3.78
2023-01-11T22:26:46.929Z,2.90
2023-01-11T22:29:17.851Z,3.40
2023-01-11T22:31:47.702Z,2.85
2023-01-11T22:34:16.466Z,3.13
2023-01-11T22:36:44.937Z,3.15
2023-01-11T22:39:13.908Z,2.95
2023-01-11T22:41:45.575Z,3.03
2023-01-11T22:44:13.794Z,2.97
2023-01-11T22:46:42.062Z,3.45
2023-01-11T22:49:10.479Z,2.65
2023-01-11T22:51:38.702Z,2.60
2023-01-11T22:54:06.648Z,3.33
2023-01-11T22:56:34.456Z,2.75
2023-01-11T22:59:03.934Z,2.85
2023-01-11T23:01:33.576Z,2.53
2023-01-11T23:04:01.916Z,2.47
2023-01-11T23:06:30.901Z,2.40
2023-01-11T23:08:58.918Z,2.97
2023-01-11T23:11:45.828Z,3.10
2023-01-11T23:14:16.437Z,2.58
2023-01-11T23:16:45.251Z,2.42
2023-01-11T23:19:13.849Z,3.03
2023-01-11T23:21:42.639Z,3.17
2023-01-11T23:24:11.080Z,2.67
2023-01-11T23:26:39.049Z,3.85
2023-01-11T23:29:07.020Z,3.28
2023-01-11T23:31:36.477Z,3.15
2023-01-11T23:34:07.016Z,3.22
2023-01-11T23:36:36.150Z,3.03
2023-01-11T23:39:04.183Z,2.75
2023-01-11T23:41:49.853Z,3.25
2023-01-11T23:44:18.399Z,3.17
2023-01-11T23:47:04.793Z,2.95
2023-01-11T23:49:33.442Z,2.67
2023-01-11T23:52:01.872Z,2.72
2023-01-11T23:54:31.632Z,2.88
2023-01-11T23:57:00.483Z,2.92
2023-01-11T23:59:28.395Z,2.45
